Wyatt, Indiana
Current Conditions -  °F | °C
As of 8:54 PM on Monday 24 Nov 2014 (Local Time) from KSBN Reporting Station
Overcast Overcast  
Wind Chill: 16°   Ceiling: 1800
Heat Index: 30°   Visibility: 9mi
Dew Point: 28°   Wind: 24mph
Humidity: 92%   Direction: 240°WSW
Pressure: 29.71"   Gusts: 38mph
Location:  41.53°N, 86.17°W
Report Text: KSBN 250154Z 24021G33KT 9SM OVC018 M01/M02 A2971 RMK AO2 PK WND 25036/0112 SNB16E49 SLP066 P0000 T10111022 $
Loading
Personal Weather Stations






























Interactive Weather Map New forecast layout! Learn more

10-Day Weather Forecast

Advertisements
Track Severe Weather on mobile